Overview Statistics Trail Chart Weather Telemetry Raw packets
 

This is the latest recevied weather packets stored in our database for station/object KD4EED. If no packets are shown the sender has not sent any weather packets the latest 10 day(s).

<< 108 109 110 111 112 113 114 >>
Time Temp. Humidity Pressure Rain* Wind** Luminosity Snow
1787853297 27.78° C 76% 1010.9 hPa - - 121 W/m² -
1787852996 27.78° C 76% 1011 hPa - - 210 W/m² -
1787852691 27.78° C 75% 1010.9 hPa - - 159 W/m² -
1787852390 27.78° C 74% 1010.9 hPa - - 137 W/m² -
1787852089 28.89° C 72% 1010.8 hPa - - 144 W/m² -
1787851784 30° C 68% 1010.7 hPa - - 93 W/m² -
1787851479 30.56° C 62% 1010.5 hPa - - 165 W/m² -
1787851174 31.11° C 57% 1010.1 hPa - - 175 W/m² -
1787850870 31.11° C 57% 1010.1 hPa - - 162 W/m² -
1787850566 30.56° C 57% 1010 hPa - - 178 W/m² -
1787850260 30.56° C 57% 1009.7 hPa - - 207 W/m² -
1787849960 30° C 58% 1009.5 hPa - - 167 W/m² -
1787849655 30° C 59% 1009.4 hPa - - 161 W/m² -
1787849355 28.89° C 63% 1009.4 hPa - - 166 W/m² -
1787849048 28.89° C 64% 1009.1 hPa - - 162 W/m² -
1787848743 28.33° C 67% 1009 hPa - - 141 W/m² -
1787848438 28.33° C 68% 1009 hPa - - 157 W/m² -
1787848138 27.78° C 67% 1009 hPa - - 132 W/m² -
1787847837 27.78° C 69% 1009 hPa - - 74 W/m² -
1787847533 27.78° C 69% 1009 hPa - - 69 W/m² -
1787847228 27.22° C 70% 1009.1 hPa - - 64 W/m² -
1787846925 27.22° C 71% 1009 hPa - - 64 W/m² -
1787846624 27.22° C 71% 1009.1 hPa - - 71 W/m² -
1787846319 27.22° C 72% 1009.3 hPa - - 71 W/m² -
1787846016 26.67° C 73% 1009.5 hPa - - 75 W/m² -

* Rain since midnight (hover to see other rain measurements)
** Current wind speed in m/s (hover to see current wind gust speed)